createdAt,value
2019-04-01T00:09:41.121Z,5.17
2019-04-01T00:24:43.713Z,4.90
2019-04-01T00:39:47.097Z,5.02
2019-04-01T00:54:49.701Z,4.78
2019-04-01T01:09:52.358Z,4.86
2019-04-01T01:24:54.941Z,4.85
2019-04-01T01:39:58.954Z,4.46
2019-04-01T01:55:01.538Z,4.45
2019-04-01T02:10:05.039Z,4.13
2019-04-01T02:25:07.884Z,3.81
2019-04-01T02:40:13.219Z,3.68
2019-04-01T02:55:18.005Z,3.95
2019-04-01T03:10:20.593Z,3.70
2019-04-01T03:25:25.581Z,3.69
2019-04-01T03:40:30.038Z,3.67
2019-04-01T03:55:36.537Z,3.45
2019-04-01T04:10:41.146Z,3.38
2019-04-01T04:25:46.181Z,4.07
2019-04-01T04:40:51.801Z,5.94
2019-04-01T04:55:54.402Z,7.72
2019-04-01T05:10:56.998Z,10.45
2019-04-01T05:26:00.394Z,13.26
2019-04-01T05:41:04.610Z,14.44
2019-04-01T05:56:07.817Z,15.82
2019-04-01T06:11:14.438Z,16.92
2019-04-01T06:26:18.177Z,17.85
2019-04-01T06:41:20.868Z,19.83
2019-04-01T06:56:24.270Z,20.70
2019-04-01T07:11:26.931Z,23.14
2019-04-01T07:26:30.111Z,25.25
2019-04-01T07:41:34.450Z,25.81
2019-04-01T07:56:37.146Z,25.19
2019-04-01T08:11:39.863Z,24.03
2019-04-01T08:26:43.274Z,23.35
2019-04-01T08:41:47.204Z,23.48
2019-04-01T08:56:49.910Z,21.28
2019-04-01T09:11:56.221Z,21.10
2019-04-01T09:26:59.534Z,22.10
2019-04-01T09:42:03.528Z,22.15
2019-04-01T09:57:17.253Z,19.88
2019-04-01T10:12:11.578Z,19.72
2019-04-01T10:27:14.956Z,22.56
2019-04-01T10:42:18.721Z,20.18
2019-04-01T10:57:22.852Z,21.29
2019-04-01T11:12:25.396Z,20.61
2019-04-01T11:27:27.966Z,21.03
2019-04-01T11:42:30.649Z,20.00
2019-04-01T11:57:33.336Z,20.02
2019-04-01T12:12:36.386Z,19.76
2019-04-01T12:27:39.605Z,19.71
2019-04-01T12:42:43.037Z,19.46
2019-04-01T12:57:48.563Z,19.37
2019-04-01T13:12:54.514Z,19.92
2019-04-01T13:27:57.439Z,18.82
2019-04-01T13:43:00.152Z,18.69
2019-04-01T13:58:02.732Z,18.54
2019-04-01T14:13:05.301Z,18.19
2019-04-01T14:28:09.437Z,17.88
2019-04-01T14:43:12.361Z,17.85
2019-04-01T14:58:14.933Z,17.18
2019-04-01T15:13:17.482Z,17.00
2019-04-01T15:28:20.188Z,16.80
2019-04-01T15:43:22.746Z,16.40
2019-04-01T15:58:25.332Z,15.98
2019-04-01T16:13:27.905Z,15.67
2019-04-01T16:28:30.486Z,15.25
2019-04-01T16:43:33.827Z,14.74
2019-04-01T16:58:36.401Z,14.19
2019-04-01T17:13:40.238Z,13.09
2019-04-01T17:28:42.856Z,12.88
2019-04-01T17:43:47.718Z,12.66
2019-04-01T17:58:50.775Z,12.88
2019-04-01T18:13:54.173Z,12.52
2019-04-01T18:28:56.757Z,12.50
2019-04-01T18:44:00.152Z,12.53
2019-04-01T18:59:02.734Z,12.61
2019-04-01T19:14:06.787Z,12.59
2019-04-01T19:29:09.425Z,12.53
2019-04-01T19:44:12.109Z,12.47
2019-04-01T19:59:16.166Z,12.39
2019-04-01T20:14:19.015Z,12.11
2019-04-01T20:29:23.869Z,11.95
2019-04-01T20:44:26.426Z,12.16
2019-04-01T20:59:30.494Z,11.96
2019-04-01T21:14:34.719Z,12.10
2019-04-01T21:29:38.254Z,11.48
2019-04-01T21:44:41.593Z,11.16
2019-04-01T21:59:45.164Z,12.05
2019-04-01T22:14:48.936Z,12.46
2019-04-01T22:29:51.503Z,12.55
2019-04-01T22:44:57.094Z,12.65
2019-04-01T23:00:00.721Z,12.73
2019-04-01T23:15:05.893Z,12.55
2019-04-01T23:30:10.642Z,12.27
2019-04-01T23:45:14.240Z,12.26
